Mineral Point, Pennsylvania
Current Conditions -  °F | °C
As of 10:54 PM on Sunday 23 Nov 2014 (Local Time) from KJST Reporting Station
Moderate Rain Moderate Rain  
Wind Chill: 36°   Ceiling: 800
Heat Index: 44°   Visibility: 5mi
Dew Point: 42°   Wind: 17mph
Humidity: 93%   Direction: 140°SE
Pressure: 29.68"   Gusts: 29mph
Location:  40.38°N, 78.84°W
Report Text: KJST 240354Z AUTO 14015G25KT 5SM RA BR BKN008 BKN050 OVC070 07/06 A2968 RMK AO2 PK WND 15032/0325 PRESFR SLP054 P0008 T00670056
Loading
Personal Weather Stations






























Interactive Weather Map New forecast layout! Learn more

10-Day Weather Forecast

Advertisements
Track Severe Weather on mobile